createdAt,value
2019-04-10T00:01:47.428Z,11.12
2019-04-10T00:04:16.458Z,11.28
2019-04-10T00:06:45.865Z,10.53
2019-04-10T00:09:15.191Z,12.05
2019-04-10T00:11:45.077Z,10.40
2019-04-10T00:14:14.325Z,11.38
2019-04-10T00:16:43.297Z,11.65
2019-04-10T00:19:12.785Z,10.08
2019-04-10T00:21:42.035Z,10.63
2019-04-10T00:24:11.513Z,11.03
2019-04-10T00:26:41.617Z,11.78
2019-04-10T00:29:11.934Z,11.12
2019-04-10T00:31:42.225Z,11.90
2019-04-10T00:34:11.604Z,10.18
2019-04-10T00:36:41.475Z,11.03
2019-04-10T00:39:11.090Z,10.68
2019-04-10T00:41:40.688Z,11.90
2019-04-10T00:44:09.874Z,10.98
2019-04-10T00:46:39.900Z,11.08
2019-04-10T00:49:09.351Z,11.28
2019-04-10T00:51:38.240Z,11.03
2019-04-10T00:54:07.763Z,10.35
2019-04-10T00:56:36.975Z,10.88
2019-04-10T00:59:06.175Z,10.88
2019-04-10T01:01:36.138Z,11.12
2019-04-10T01:04:24.814Z,9.55
2019-04-10T01:06:54.538Z,10.00
2019-04-10T01:09:23.858Z,10.90
2019-04-10T01:11:52.810Z,10.18
2019-04-10T01:14:21.812Z,11.40
2019-04-10T01:16:51.508Z,11.18
2019-04-10T01:19:20.787Z,10.50
2019-04-10T01:21:50.594Z,9.40
2019-04-10T01:24:19.657Z,11.22
2019-04-10T01:26:49.573Z,10.18
2019-04-10T01:29:19.695Z,10.32
2019-04-10T01:31:48.968Z,10.40
2019-04-10T01:34:18.984Z,9.08
2019-04-10T01:36:48.054Z,9.28
2019-04-10T01:39:24.258Z,8.98
2019-04-10T01:41:54.390Z,8.60
2019-04-10T01:44:24.727Z,9.88
2019-04-10T01:46:54.961Z,8.03
2019-04-10T01:49:23.964Z,8.43
2019-04-10T01:51:52.975Z,8.80
2019-04-10T01:54:22.726Z,8.03
2019-04-10T01:56:52.180Z,8.38
2019-04-10T01:59:23.593Z,8.18
2019-04-10T02:02:03.116Z,8.10
2019-04-10T02:04:33.034Z,6.90
2019-04-10T02:07:02.405Z,8.10
2019-04-10T02:09:31.744Z,6.90
2019-04-10T02:12:01.998Z,7.53
2019-04-10T02:14:32.135Z,7.33
2019-04-10T02:17:01.472Z,7.47
2019-04-10T02:19:30.316Z,7.62
2019-04-10T02:22:00.198Z,7.75
2019-04-10T02:24:29.405Z,7.30
2019-04-10T02:26:58.295Z,7.30
2019-04-10T02:29:28.038Z,7.17
2019-04-10T02:31:57.453Z,6.78
2019-04-10T02:34:26.490Z,7.17
2019-04-10T02:36:55.442Z,7.10
2019-04-10T02:39:32.485Z,6.78
2019-04-10T02:41:56.198Z,6.55
2019-04-10T02:44:27.951Z,6.65
2019-04-10T02:46:59.113Z,6.47
2019-04-10T02:49:28.008Z,6.83
2019-04-10T02:51:57.238Z,6.22
2019-04-10T02:54:27.080Z,6.67
2019-04-10T02:56:56.859Z,6.25
2019-04-10T02:59:27.016Z,6.55
2019-04-10T03:01:57.865Z,6.53
2019-04-10T03:04:28.482Z,5.90
2019-04-10T03:06:57.726Z,5.17
2019-04-10T03:09:42.045Z,5.53
2019-04-10T03:11:59.440Z,5.03
2019-04-10T03:14:28.764Z,5.20
2019-04-10T03:16:58.021Z,5.12
2019-04-10T03:19:27.693Z,5.42
2019-04-10T03:21:57.702Z,5.05
2019-04-10T03:24:27.479Z,5.53
2019-04-10T03:26:56.719Z,5.12
2019-04-10T03:29:25.636Z,4.50
2019-04-10T03:31:57.101Z,5.08
2019-04-10T03:34:31.880Z,5.10
2019-04-10T03:37:01.787Z,5.58
2019-04-10T03:39:33.509Z,4.90
2019-04-10T03:42:01.617Z,4.95
2019-04-10T03:44:30.501Z,4.83
2019-04-10T03:46:59.386Z,4.50
2019-04-10T03:49:28.296Z,5.10
2019-04-10T03:51:57.148Z,5.00
2019-04-10T03:54:26.013Z,4.20
2019-04-10T03:56:54.925Z,5.05
2019-04-10T03:59:24.351Z,4.50
2019-04-10T04:01:53.735Z,4.60
2019-04-10T04:04:23.652Z,3.77
2019-04-10T04:06:53.067Z,4.47
2019-04-10T04:09:21.914Z,4.25
2019-04-10T04:11:50.736Z,4.10
2019-04-10T04:14:19.967Z,4.58
2019-04-10T04:16:49.155Z,4.45
2019-04-10T04:19:18.468Z,4.50
2019-04-10T04:21:48.169Z,4.33
2019-04-10T04:24:17.846Z,4.53
2019-04-10T04:26:48.571Z,4.65
2019-04-10T04:29:18.477Z,4.47
2019-04-10T04:31:48.462Z,4.60
2019-04-10T04:34:18.435Z,4.67
2019-04-10T04:36:49.124Z,4.42
2019-04-10T04:39:25.736Z,5.22
2019-04-10T04:41:49.851Z,4.15
2019-04-10T04:44:20.168Z,4.12
2019-04-10T04:46:50.483Z,5.33
2019-04-10T04:49:20.668Z,3.98
2019-04-10T04:51:50.578Z,4.08
2019-04-10T04:54:19.826Z,4.53
2019-04-10T04:56:49.046Z,4.42
2019-04-10T04:59:18.418Z,4.65
2019-04-10T05:01:47.319Z,4.00
2019-04-10T05:04:17.288Z,4.42
2019-04-10T05:06:47.787Z,4.17
2019-04-10T05:09:27.377Z,4.60
2019-04-10T05:11:47.645Z,4.67
2019-04-10T05:14:17.482Z,4.15
2019-04-10T05:16:46.492Z,5.03
2019-04-10T05:19:21.093Z,4.33
2019-04-10T05:21:50.063Z,4.25
2019-04-10T05:24:19.936Z,5.03
2019-04-10T05:26:49.275Z,4.30
2019-04-10T05:29:18.255Z,4.80
2019-04-10T05:31:47.688Z,4.30
2019-04-10T05:34:17.713Z,4.97
2019-04-10T05:36:47.060Z,4.75
2019-04-10T05:39:16.859Z,3.80
2019-04-10T05:41:46.887Z,3.80
2019-04-10T05:44:16.677Z,4.17
2019-04-10T05:46:46.543Z,4.33
2019-04-10T05:49:17.093Z,4.42
2019-04-10T05:51:46.122Z,4.22
2019-04-10T05:54:15.715Z,4.70
2019-04-10T05:56:44.801Z,3.75
2019-04-10T05:59:14.641Z,3.83
2019-04-10T06:01:44.603Z,4.33
2019-04-10T06:04:14.186Z,3.40
2019-04-10T06:06:43.046Z,3.58
2019-04-10T06:09:14.103Z,3.72
2019-04-10T06:11:44.497Z,3.60
2019-04-10T06:14:14.053Z,4.05
2019-04-10T06:16:42.911Z,4.22
2019-04-10T06:19:11.907Z,3.15
2019-04-10T06:21:40.742Z,3.80
2019-04-10T06:24:09.823Z,3.25
2019-04-10T06:26:39.506Z,3.25
2019-04-10T06:29:08.656Z,3.70
2019-04-10T06:31:38.932Z,3.30
2019-04-10T06:34:08.927Z,2.98
2019-04-10T06:36:37.912Z,3.65
2019-04-10T06:39:08.774Z,4.17
2019-04-10T06:41:38.949Z,4.15
2019-04-10T06:44:08.110Z,3.45
2019-04-10T06:46:38.848Z,4.15
2019-04-10T06:49:09.278Z,4.15
2019-04-10T06:51:38.726Z,4.03
2019-04-10T06:54:11.064Z,3.62
2019-04-10T06:56:38.380Z,4.47
2019-04-10T06:59:07.323Z,4.08
2019-04-10T07:01:44.382Z,4.17
2019-04-10T07:04:08.135Z,4.30
2019-04-10T07:06:49.905Z,4.10
2019-04-10T07:09:11.743Z,4.60
2019-04-10T07:11:40.796Z,3.77
2019-04-10T07:14:13.446Z,4.40
2019-04-10T07:16:40.336Z,4.20
2019-04-10T07:19:11.652Z,4.97
2019-04-10T07:21:40.599Z,4.00
2019-04-10T07:24:12.174Z,4.28
2019-04-10T07:26:44.587Z,4.30
2019-04-10T07:29:15.613Z,3.85
2019-04-10T07:31:42.523Z,4.10
2019-04-10T07:34:11.900Z,4.35
2019-04-10T07:36:43.471Z,4.10
2019-04-10T07:39:13.049Z,5.00
2019-04-10T07:41:42.348Z,4.15
2019-04-10T07:44:12.148Z,4.20
2019-04-10T07:46:42.322Z,3.83
2019-04-10T07:49:12.047Z,3.80
2019-04-10T07:51:40.962Z,3.80
2019-04-10T07:54:09.889Z,4.75
2019-04-10T07:56:39.590Z,4.75
2019-04-10T07:59:08.850Z,3.72
2019-04-10T08:01:37.917Z,3.70
2019-04-10T08:04:06.920Z,4.15
2019-04-10T08:06:35.895Z,4.67
2019-04-10T08:09:08.380Z,4.33
2019-04-10T08:11:38.132Z,4.33
2019-04-10T08:14:08.506Z,4.97
2019-04-10T08:16:37.768Z,4.50
2019-04-10T08:19:06.736Z,4.62
2019-04-10T08:21:35.906Z,4.95
2019-04-10T08:24:05.203Z,4.87
2019-04-10T08:26:34.624Z,4.80
2019-04-10T08:29:04.197Z,4.40
2019-04-10T08:31:33.018Z,4.33
2019-04-10T08:34:02.979Z,5.20
2019-04-10T08:36:32.131Z,4.45
2019-04-10T08:39:01.113Z,4.72
2019-04-10T08:41:29.973Z,4.67
2019-04-10T08:43:58.964Z,4.60
2019-04-10T08:46:28.212Z,3.98
2019-04-10T08:48:58.085Z,4.90
2019-04-10T08:51:27.716Z,4.97
2019-04-10T08:53:56.956Z,4.37
2019-04-10T08:56:26.128Z,4.55
2019-04-10T08:58:55.154Z,4.62
2019-04-10T09:01:25.146Z,4.67
2019-04-10T09:03:55.242Z,5.70
2019-04-10T09:06:25.205Z,4.70
2019-04-10T09:08:54.460Z,4.00
2019-04-10T09:11:26.918Z,4.42
2019-04-10T09:13:54.953Z,4.22
2019-04-10T09:16:24.727Z,4.55
2019-04-10T09:18:55.762Z,4.62
2019-04-10T09:21:24.905Z,3.62
2019-04-10T09:23:56.188Z,4.28
2019-04-10T09:26:24.556Z,4.78
2019-04-10T09:28:54.849Z,4.20
2019-04-10T09:31:24.127Z,5.35
2019-04-10T09:33:53.749Z,4.60
2019-04-10T09:36:23.286Z,4.62
2019-04-10T09:38:52.842Z,4.22
2019-04-10T09:41:22.131Z,5.00
2019-04-10T09:43:51.111Z,5.25
2019-04-10T09:46:20.381Z,5.28
2019-04-10T09:48:49.844Z,5.03
2019-04-10T09:51:19.617Z,5.03
2019-04-10T09:53:48.983Z,4.90
2019-04-10T09:56:17.989Z,3.98
2019-04-10T09:58:47.262Z,5.37
2019-04-10T10:01:17.941Z,5.60
2019-04-10T10:03:47.345Z,4.90
2019-04-10T10:06:25.320Z,4.70
2019-04-10T10:08:48.002Z,5.35
2019-04-10T10:11:18.042Z,5.10
2019-04-10T10:13:48.241Z,4.92
2019-04-10T10:16:18.842Z,5.37
2019-04-10T10:18:47.935Z,5.78
2019-04-10T10:21:16.925Z,4.58
2019-04-10T10:23:46.482Z,5.12
2019-04-10T10:26:15.827Z,4.97
2019-04-10T10:28:45.089Z,4.42
2019-04-10T10:31:15.721Z,4.70
2019-04-10T10:33:45.877Z,4.35
2019-04-10T10:36:15.844Z,5.10
2019-04-10T10:38:45.449Z,4.92
2019-04-10T10:41:15.156Z,4.72
2019-04-10T10:43:44.613Z,4.58
2019-04-10T10:46:13.857Z,5.90
2019-04-10T10:48:44.083Z,5.53
2019-04-10T10:51:13.150Z,4.95
2019-04-10T10:53:42.120Z,4.67
2019-04-10T10:56:11.924Z,4.60
2019-04-10T10:58:41.396Z,5.47
2019-04-10T11:01:10.350Z,4.35
2019-04-10T11:03:40.532Z,5.00
2019-04-10T11:06:10.785Z,5.20
2019-04-10T11:08:49.375Z,5.00
2019-04-10T11:11:18.215Z,4.45
2019-04-10T11:13:47.190Z,4.95
2019-04-10T11:16:16.989Z,4.20
2019-04-10T11:18:46.886Z,4.62
2019-04-10T11:21:16.846Z,4.12
2019-04-10T11:23:46.844Z,4.62
2019-04-10T11:26:21.503Z,4.42
2019-04-10T11:28:47.922Z,4.17
2019-04-10T11:31:17.447Z,3.85
2019-04-10T11:33:50.239Z,3.77
2019-04-10T11:36:19.874Z,3.85
2019-04-10T11:38:49.352Z,4.00
2019-04-10T11:41:19.363Z,4.22
2019-04-10T11:43:50.150Z,4.28
2019-04-10T11:46:20.145Z,4.40
2019-04-10T11:48:49.364Z,3.80
2019-04-10T11:51:18.662Z,3.50
2019-04-10T11:53:51.414Z,3.90
2019-04-10T11:56:19.320Z,3.62
2019-04-10T11:58:54.121Z,3.92
2019-04-10T12:01:21.624Z,4.28
2019-04-10T12:03:53.867Z,4.25
2019-04-10T12:06:21.182Z,3.85
2019-04-10T12:11:22.062Z,3.98
2019-04-10T12:13:52.017Z,3.60
2019-04-10T12:16:21.072Z,3.62
2019-04-10T12:18:50.939Z,3.70
2019-04-10T12:21:20.056Z,3.98
2019-04-10T12:23:50.045Z,3.77
2019-04-10T12:26:19.984Z,4.28
2019-04-10T12:28:49.915Z,3.83
2019-04-10T12:31:19.747Z,3.90
2019-04-10T12:33:48.747Z,4.00
2019-04-10T12:36:18.350Z,3.37
2019-04-10T12:38:47.778Z,4.40
2019-04-10T12:41:17.300Z,4.10
2019-04-10T12:43:47.348Z,3.52
2019-04-10T12:46:17.665Z,4.08
2019-04-10T12:48:47.264Z,4.15
2019-04-10T12:51:17.389Z,3.83
2019-04-10T12:53:47.686Z,4.12
2019-04-10T12:56:17.537Z,3.92
2019-04-10T12:58:47.079Z,4.40
2019-04-10T13:01:16.354Z,3.85
2019-04-10T13:03:45.810Z,3.80
2019-04-10T13:06:15.805Z,3.40
2019-04-10T13:08:57.127Z,3.90
2019-04-10T13:11:16.525Z,2.90
2019-04-10T13:13:46.324Z,3.52
2019-04-10T13:16:16.135Z,3.05
2019-04-10T13:18:45.341Z,3.30
2019-04-10T13:21:14.710Z,3.05
2019-04-10T13:23:44.765Z,2.85
2019-04-10T13:26:15.553Z,2.90
2019-04-10T13:28:44.900Z,3.15
2019-04-10T13:31:14.115Z,2.55
2019-04-10T13:33:43.467Z,2.90
2019-04-10T13:36:13.416Z,2.75
2019-04-10T13:38:42.454Z,2.33
2019-04-10T13:41:12.286Z,2.30
2019-04-10T13:43:42.271Z,2.30
2019-04-10T13:46:11.507Z,2.62
2019-04-10T13:48:41.688Z,2.30
2019-04-10T13:51:10.968Z,2.35
2019-04-10T13:53:39.967Z,2.62
2019-04-10T13:56:08.957Z,2.40
2019-04-10T13:58:37.803Z,2.50
2019-04-10T14:01:09.392Z,2.52
2019-04-10T14:03:41.198Z,2.27
2019-04-10T14:06:09.627Z,2.58
2019-04-10T14:09:01.792Z,2.70
2019-04-10T14:11:11.121Z,2.47
2019-04-10T14:13:40.265Z,2.30
2019-04-10T14:16:09.277Z,2.30
2019-04-10T14:18:39.055Z,2.35
2019-04-10T14:21:12.859Z,2.22
2019-04-10T14:23:39.618Z,2.27
2019-04-10T14:26:42.227Z,1.77
2019-04-10T14:29:09.318Z,2.05
2019-04-10T14:31:42.660Z,2.00
2019-04-10T14:34:12.417Z,2.30
2019-04-10T14:36:42.272Z,2.10
2019-04-10T14:39:19.322Z,2.00
2019-04-10T14:41:46.999Z,2.30
2019-04-10T14:44:16.208Z,2.15
2019-04-10T14:46:46.341Z,1.98
2019-04-10T14:49:16.669Z,2.50
2019-04-10T14:51:46.334Z,2.42
2019-04-10T14:54:15.957Z,2.22
2019-04-10T14:56:46.276Z,2.05
2019-04-10T14:59:15.804Z,2.55
2019-04-10T15:01:44.951Z,2.05
2019-04-10T15:04:15.094Z,2.35
2019-04-10T15:06:44.483Z,2.27
2019-04-10T15:09:25.347Z,2.60
2019-04-10T15:11:51.055Z,2.05
2019-04-10T15:14:20.203Z,2.17
2019-04-10T15:16:55.483Z,1.60
2019-04-10T15:19:21.018Z,1.75
2019-04-10T15:21:52.273Z,2.27
2019-04-10T15:24:21.636Z,2.30
2019-04-10T15:26:51.032Z,2.00
2019-04-10T15:29:21.205Z,2.65
2019-04-10T15:31:50.379Z,2.33
2019-04-10T15:34:20.439Z,2.70
2019-04-10T15:36:50.786Z,2.20
2019-04-10T15:39:31.373Z,1.82
2019-04-10T15:41:51.845Z,2.30
2019-04-10T15:44:21.833Z,1.80
2019-04-10T15:46:51.357Z,1.90
2019-04-10T15:49:20.664Z,1.85
2019-04-10T15:51:49.764Z,1.80
2019-04-10T15:54:18.790Z,1.75
2019-04-10T15:56:47.769Z,2.20
2019-04-10T15:59:16.765Z,2.30
2019-04-10T16:01:49.029Z,2.17
2019-04-10T16:04:19.040Z,2.33
2019-04-10T16:06:49.395Z,1.87
2019-04-10T16:09:19.037Z,2.83
2019-04-10T16:11:54.346Z,2.20
2019-04-10T16:14:27.326Z,2.30
2019-04-10T16:17:15.373Z,2.90
2019-04-10T16:19:49.437Z,2.70
2019-04-10T16:22:23.996Z,2.50
2019-04-10T16:24:53.375Z,2.35
2019-04-10T16:27:22.627Z,2.65
2019-04-10T16:29:51.487Z,2.62
2019-04-10T16:32:21.871Z,2.58
2019-04-10T16:34:51.178Z,2.70
2019-04-10T16:37:20.293Z,2.98
2019-04-10T16:39:58.580Z,2.62
2019-04-10T16:42:19.969Z,2.50
2019-04-10T16:44:49.283Z,3.17
2019-04-10T16:47:19.614Z,2.83
2019-04-10T16:49:48.902Z,3.17
2019-04-10T16:52:18.108Z,2.87
2019-04-10T16:54:47.219Z,2.70
2019-04-10T16:57:16.364Z,3.30
2019-04-10T16:59:46.653Z,3.00
2019-04-10T17:02:16.180Z,2.35
2019-04-10T17:04:45.089Z,3.30
2019-04-10T17:07:14.772Z,3.45
2019-04-10T17:09:45.396Z,2.72
2019-04-10T17:12:29.578Z,2.42
2019-04-10T17:14:55.526Z,2.98
2019-04-10T17:17:26.341Z,2.85
2019-04-10T17:19:57.730Z,2.20
2019-04-10T17:22:54.123Z,2.77
2019-04-10T17:25:24.333Z,2.70
2019-04-10T17:27:54.141Z,2.65
2019-04-10T17:30:23.629Z,2.37
2019-04-10T17:32:52.677Z,2.20
2019-04-10T17:35:23.249Z,2.42
2019-04-10T17:37:52.591Z,2.60
2019-04-10T17:40:29.777Z,2.02
2019-04-10T17:42:52.749Z,2.30
2019-04-10T17:45:23.035Z,2.00
2019-04-10T17:47:54.614Z,2.25
2019-04-10T17:50:24.497Z,1.92
2019-04-10T17:52:53.730Z,2.35
2019-04-10T17:55:23.284Z,2.33
2019-04-10T17:57:55.765Z,2.20
2019-04-10T18:00:39.885Z,2.40
2019-04-10T18:03:09.417Z,2.27
2019-04-10T18:05:39.141Z,2.20
2019-04-10T18:08:08.425Z,1.65
2019-04-10T18:10:44.767Z,2.25
2019-04-10T18:13:08.510Z,2.00
2019-04-10T18:15:37.928Z,1.95
2019-04-10T18:18:07.366Z,2.50
2019-04-10T18:20:36.953Z,2.05
2019-04-10T18:23:07.156Z,1.92
2019-04-10T18:25:38.119Z,2.22
2019-04-10T18:28:07.546Z,2.35
2019-04-10T18:30:44.016Z,2.22
2019-04-10T18:33:14.157Z,2.50
2019-04-10T18:35:43.353Z,2.90
2019-04-10T18:38:13.269Z,2.83
2019-04-10T18:40:52.126Z,2.08
2019-04-10T18:43:13.613Z,2.27
2019-04-10T18:45:54.743Z,3.10
2019-04-10T18:48:13.244Z,3.00
2019-04-10T18:50:43.446Z,2.58
2019-04-10T18:53:13.285Z,1.92
2019-04-10T18:55:42.743Z,2.12
2019-04-10T18:58:17.514Z,2.42
2019-04-10T19:01:11.459Z,2.50
2019-04-10T19:04:03.909Z,2.72
2019-04-10T19:06:39.043Z,2.35
2019-04-10T19:09:15.789Z,2.90
2019-04-10T19:11:40.098Z,2.50
2019-04-10T19:14:09.310Z,2.80
2019-04-10T19:16:38.453Z,2.67
2019-04-10T19:19:08.793Z,3.02
2019-04-10T19:21:37.835Z,2.60
2019-04-10T19:24:08.130Z,2.95
2019-04-10T19:26:37.795Z,3.08
2019-04-10T19:29:07.504Z,3.35
2019-04-10T19:31:38.530Z,3.42
2019-04-10T19:34:07.640Z,3.50
2019-04-10T19:36:36.970Z,3.87
2019-04-10T19:39:07.850Z,3.50
2019-04-10T19:41:39.826Z,3.12
2019-04-10T19:44:07.784Z,3.08
2019-04-10T19:46:37.661Z,4.12
2019-04-10T19:49:08.142Z,3.50
2019-04-10T19:51:38.507Z,3.75
2019-04-10T19:54:09.296Z,3.50
2019-04-10T19:56:38.559Z,4.37
2019-04-10T19:59:08.386Z,4.40
2019-04-10T20:01:45.184Z,3.52
2019-04-10T20:04:17.263Z,4.28
2019-04-10T20:06:47.160Z,4.10
2019-04-10T20:09:16.758Z,4.47
2019-04-10T20:11:52.238Z,4.50
2019-04-10T20:14:17.815Z,4.78
2019-04-10T20:16:49.275Z,4.05
2019-04-10T20:19:19.662Z,4.20
2019-04-10T20:21:50.402Z,4.42
2019-04-10T20:24:20.820Z,4.08
2019-04-10T20:26:51.799Z,4.15
2019-04-10T20:29:23.229Z,5.05
2019-04-10T20:31:55.369Z,5.35
2019-04-10T20:34:25.813Z,4.55
2019-04-10T20:36:55.789Z,4.80
2019-04-10T20:39:29.589Z,4.28
2019-04-10T20:42:11.621Z,4.53
2019-04-10T20:44:41.261Z,4.15
2019-04-10T20:47:11.191Z,4.72
2019-04-10T20:49:42.497Z,4.30
2019-04-10T20:52:13.206Z,4.67
2019-04-10T20:54:42.649Z,4.92
2019-04-10T20:57:12.952Z,5.35
2019-04-10T20:59:44.622Z,4.75
2019-04-10T21:02:50.907Z,5.10
2019-04-10T21:05:17.974Z,5.25
2019-04-10T21:07:48.104Z,4.95
2019-04-10T21:10:19.645Z,4.03
2019-04-10T21:12:48.615Z,4.72
2019-04-10T21:15:17.580Z,5.10
2019-04-10T21:17:46.730Z,5.50
2019-04-10T21:20:15.969Z,4.65
2019-04-10T21:22:45.232Z,5.12
2019-04-10T21:25:14.900Z,4.80
2019-04-10T21:27:44.176Z,5.67
2019-04-10T21:30:31.764Z,5.33
2019-04-10T21:33:12.069Z,4.75
2019-04-10T21:35:42.096Z,5.25
2019-04-10T21:38:11.072Z,4.75
2019-04-10T21:40:41.240Z,5.12
2019-04-10T21:43:10.339Z,5.70
2019-04-10T21:45:39.356Z,6.12
2019-04-10T21:48:08.651Z,5.03
2019-04-10T21:50:38.161Z,5.78
2019-04-10T21:53:08.106Z,5.75
2019-04-10T21:55:37.558Z,5.45
2019-04-10T21:58:08.432Z,5.53
2019-04-10T22:00:55.013Z,4.83
2019-04-10T22:03:25.309Z,5.50
2019-04-10T22:06:05.692Z,4.97
2019-04-10T22:08:41.355Z,4.37
2019-04-10T22:11:10.349Z,5.22
2019-04-10T22:13:44.220Z,5.28
2019-04-10T22:16:15.060Z,5.78
2019-04-10T22:18:44.067Z,5.50
2019-04-10T22:21:14.509Z,5.25
2019-04-10T22:23:44.757Z,5.00
2019-04-10T22:26:14.244Z,5.25
2019-04-10T22:28:43.537Z,5.20
2019-04-10T22:31:13.739Z,4.75
2019-04-10T22:33:43.040Z,4.85
2019-04-10T22:36:12.892Z,4.62
2019-04-10T22:38:42.028Z,4.60
2019-04-10T22:41:20.658Z,4.78
2019-04-10T22:43:42.805Z,5.20
2019-04-10T22:46:13.124Z,4.83
2019-04-10T22:48:42.153Z,4.85
2019-04-10T22:51:11.254Z,4.78
2019-04-10T22:53:40.275Z,4.65
2019-04-10T22:56:09.268Z,5.30
2019-04-10T22:58:39.251Z,5.10
2019-04-10T23:01:09.074Z,5.37
2019-04-10T23:03:38.784Z,5.22
2019-04-10T23:06:07.725Z,4.80
2019-04-10T23:08:37.881Z,4.42
2019-04-10T23:11:07.804Z,4.70
2019-04-10T23:13:36.787Z,5.25
2019-04-10T23:16:08.250Z,4.83
2019-04-10T23:18:37.282Z,4.45
2019-04-10T23:21:06.373Z,4.47
2019-04-10T23:23:35.269Z,4.60
2019-04-10T23:26:04.842Z,4.83
2019-04-10T23:28:33.803Z,4.87
2019-04-10T23:31:03.621Z,4.78
2019-04-10T23:33:33.186Z,6.00
2019-04-10T23:36:03.549Z,4.65
2019-04-10T23:38:33.387Z,4.95
2019-04-10T23:41:02.381Z,4.78
2019-04-10T23:43:31.519Z,5.25
2019-04-10T23:46:00.636Z,5.03
2019-04-10T23:48:29.542Z,4.92
2019-04-10T23:50:58.738Z,5.35
2019-04-10T23:53:28.814Z,4.30
2019-04-10T23:55:58.727Z,5.47
2019-04-10T23:58:27.803Z,4.60
